Time;durP1;ratioP1;P1;durP2;ratioP2;P2;SDS_P1;SDS_P2;PMS_P1;PMS_P2;Temp;Humidity;BMP_temperature;BMP_pressure;BME280_temperature;BME280_humidity;BME280_pressure;Samples;Min_cycle;Max_cycle;Signal;HPM_P1;HPM_P2
2023/12/22 00:01:46;;;;;;;9.05;6.75;;;;;;;24.66;35.97;98494.88;4985077;28;20023;-46
2023/12/22 00:04:13;;;;;;;8.65;6.65;;;;;;;24.69;35.80;98499.38;4981420;28;20022;-45
2023/12/22 00:06:39;;;;;;;9.18;6.90;;;;;;;24.67;35.77;98493.63;4982175;28;20018;-48
2023/12/22 00:09:05;;;;;;;8.10;6.18;;;;;;;24.66;35.77;98492.88;5014076;28;20077;-51
2023/12/22 00:11:30;;;;;;;8.98;6.38;;;;;;;24.66;35.90;98481.09;4981396;28;20038;-47
2023/12/22 00:13:55;;;;;;;8.85;6.22;;;;;;;24.65;35.90;98480.34;4983928;28;20104;-47
2023/12/22 00:16:21;;;;;;;8.45;6.18;;;;;;;24.65;35.71;98488.63;4980425;28;20035;-46
2023/12/22 00:18:46;;;;;;;8.40;6.10;;;;;;;24.64;35.85;98483.59;4992824;28;20121;-47
2023/12/22 00:21:11;;;;;;;7.57;5.60;;;;;;;24.63;35.80;98487.63;4982017;28;20474;-46
2023/12/22 00:23:37;;;;;;;8.23;5.63;;;;;;;24.63;35.91;98487.63;4982588;28;20026;-46
2023/12/22 00:26:03;;;;;;;7.70;5.68;;;;;;;24.62;35.78;98505.44;4981856;28;20029;-46
2023/12/22 00:28:28;;;;;;;7.70;5.70;;;;;;;24.59;35.81;98518.25;4981879;28;20122;-48
2023/12/22 00:30:54;;;;;;;7.80;5.60;;;;;;;24.62;35.79;98508.97;4979620;28;20022;-45
2023/12/22 00:33:19;;;;;;;7.32;5.35;;;;;;;24.62;35.86;98517.22;4983450;28;20032;-45
2023/12/22 00:35:44;;;;;;;7.50;5.22;;;;;;;24.62;35.89;98522.75;4979610;28;20654;-51
2023/12/22 00:38:10;;;;;;;7.10;5.20;;;;;;;24.62;35.90;98542.06;4984036;28;20038;-46
2023/12/22 00:40:35;;;;;;;7.15;4.95;;;;;;;24.61;35.92;98526.78;4986742;28;20037;-47
2023/12/22 00:43:01;;;;;;;7.50;5.28;;;;;;;24.62;35.93;98519.25;4987563;28;20036;-46
2023/12/22 00:45:26;;;;;;;7.70;5.38;;;;;;;24.63;35.85;98521.50;4982124;28;20474;-46
2023/12/22 00:47:51;;;;;;;7.38;5.20;;;;;;;24.63;35.85;98518.72;4986127;28;20022;-46
2023/12/22 00:50:17;;;;;;;7.00;4.97;;;;;;;24.63;35.77;98517.97;4981825;28;20025;-46
2023/12/22 00:52:42;;;;;;;7.40;5.20;;;;;;;24.63;35.83;98515.22;4980146;28;20030;-46
2023/12/22 00:55:08;;;;;;;7.07;5.00;;;;;;;24.63;35.77;98526.25;4981574;28;20022;-45
2023/12/22 00:57:33;;;;;;;6.78;4.80;;;;;;;24.61;35.73;98528.78;4980316;28;20029;-47
2023/12/22 00:59:58;;;;;;;6.93;4.72;;;;;;;24.60;35.80;98533.56;4979307;28;20042;-46
2023/12/22 01:02:24;;;;;;;7.70;5.22;;;;;;;24.61;35.88;98539.81;4983311;28;20046;-47
2023/12/22 01:04:49;;;;;;;6.40;4.38;;;;;;;24.61;35.86;98543.34;4984279;28;20026;-46
2023/12/22 01:07:15;;;;;;;7.00;4.38;;;;;;;24.61;35.70;98539.81;4979580;28;20038;-46
2023/12/22 01:09:40;;;;;;;6.68;4.22;;;;;;;24.61;35.72;98546.09;4984284;28;20022;-47
2023/12/22 01:12:06;;;;;;;6.68;4.47;;;;;;;24.63;35.70;98537.28;4979686;28;20022;-46
2023/12/22 01:14:32;;;;;;;6.43;4.00;;;;;;;24.63;35.82;98535.28;5014967;28;20022;-46
2023/12/22 01:16:59;;;;;;;6.57;4.20;;;;;;;24.63;35.65;98542.81;4982266;28;20653;-46
2023/12/22 01:19:24;;;;;;;6.43;4.13;;;;;;;24.62;35.79;98555.13;4978760;28;20113;-49
2023/12/22 01:21:49;;;;;;;5.70;3.70;;;;;;;24.60;35.86;98546.59;4977290;28;20495;-47
2023/12/22 01:24:15;;;;;;;6.50;4.30;;;;;;;24.62;35.59;98546.84;4978603;28;20027;-47
2023/12/22 01:26:40;;;;;;;6.07;3.85;;;;;;;24.60;35.71;98571.44;4980907;28;20034;-48
2023/12/22 01:29:06;;;;;;;5.97;3.90;;;;;;;24.58;35.79;98562.94;4986695;28;20049;-47
2023/12/22 01:31:31;;;;;;;5.88;3.80;;;;;;;24.61;35.82;98572.94;4982238;28;20068;-45
2023/12/22 01:33:56;;;;;;;6.15;3.90;;;;;;;24.61;35.61;98592.25;4983788;28;20061;-47
2023/12/22 01:36:22;;;;;;;6.20;3.67;;;;;;;24.62;35.63;98594.50;4981084;28;20092;-45
2023/12/22 01:38:47;;;;;;;5.70;3.30;;;;;;;24.60;35.70;98593.50;4979791;28;20475;-46
2023/12/22 01:41:13;;;;;;;6.40;3.95;;;;;;;24.59;35.87;98614.81;4983438;28;20030;-48
2023/12/22 01:43:38;;;;;;;6.25;3.90;;;;;;;24.61;35.76;98625.34;4977024;28;20033;-48
2023/12/22 01:46:04;;;;;;;6.03;3.70;;;;;;;24.62;35.63;98624.84;4981205;28;20096;-45
2023/12/22 01:48:29;;;;;;;5.13;2.95;;;;;;;24.63;35.67;98620.81;4980893;28;20030;-47
2023/12/22 01:50:55;;;;;;;5.10;3.20;;;;;;;24.61;35.68;98633.63;5014703;28;20031;-45
2023/12/22 01:53:20;;;;;;;5.60;3.40;;;;;;;24.60;35.51;98638.41;4980379;28;20608;-47
2023/12/22 01:55:46;;;;;;;5.40;3.00;;;;;;;24.59;35.58;98647.19;4981764;28;20076;-46
2023/12/22 01:58:12;;;;;;;5.80;3.38;;;;;;;24.59;35.53;98638.91;5015023;28;20032;-49
2023/12/22 02:00:37;;;;;;;5.80;3.58;;;;;;;24.58;35.48;98643.69;4980686;28;20022;-48
2023/12/22 02:03:03;;;;;;;5.20;3.00;;;;;;;24.58;35.46;98651.94;4978001;28;20030;-46
2023/12/22 02:05:29;;;;;;;5.18;3.05;;;;;;;24.56;35.78;98648.25;4996999;28;20033;-47
2023/12/22 02:07:54;;;;;;;5.70;3.00;;;;;;;24.56;35.76;98649.00;4981487;28;20101;-45
2023/12/22 02:10:20;;;;;;;5.10;3.03;;;;;;;24.58;35.58;98640.91;4993429;28;20033;-46
2023/12/22 02:12:46;;;;;;;5.60;2.90;;;;;;;24.59;35.45;98636.16;4992899;28;20035;-46
2023/12/22 02:15:11;;;;;;;5.68;3.00;;;;;;;24.58;35.66;98634.69;4983953;28;20027;-47
2023/12/22 02:17:42;;;;;;;5.38;2.80;;;;;;;24.59;35.47;98636.16;4994074;28;20494;-46
2023/12/22 02:20:08;;;;;;;5.28;3.00;;;;;;;24.59;35.51;98630.63;4983709;28;20101;-46
2023/12/22 02:22:33;;;;;;;5.43;3.00;;;;;;;24.57;35.49;98628.41;4978280;28;20027;-45
2023/12/22 02:24:59;;;;;;;5.32;2.90;;;;;;;24.58;35.50;98623.66;4978972;28;20022;-45
2023/12/22 02:27:27;;;;;;;5.22;2.60;;;;;;;24.58;35.50;98624.38;4981838;28;20022;-47
2023/12/22 02:29:57;;;;;;;5.30;2.83;;;;;;;24.56;35.56;98602.09;4980348;28;20430;-45
2023/12/22 02:32:27;;;;;;;4.78;2.75;;;;;;;24.57;35.58;98600.06;4982439;28;20023;-46
2023/12/22 02:34:53;;;;;;;5.35;2.80;;;;;;;24.60;35.44;98588.72;4985611;28;20050;-47
2023/12/22 02:37:18;;;;;;;5.07;2.67;;;;;;;24.60;35.34;98610.06;4980532;28;20506;-47
2023/12/22 02:39:43;;;;;;;5.03;2.75;;;;;;;24.58;35.41;98624.38;5014781;28;20692;-46
2023/12/22 02:42:09;;;;;;;4.88;2.47;;;;;;;24.58;35.49;98627.13;4966310;28;20021;-45
2023/12/22 02:44:34;;;;;;;4.75;2.60;;;;;;;24.58;35.61;98618.84;4979053;28;20467;-45
2023/12/22 02:46:59;;;;;;;4.40;2.38;;;;;;;24.58;35.55;98645.72;5015957;28;20032;-46
2023/12/22 02:49:25;;;;;;;4.78;2.45;;;;;;;24.57;35.62;98635.94;4983878;28;20033;-46
2023/12/22 02:51:50;;;;;;;4.57;2.33;;;;;;;24.61;35.40;98630.88;4985675;28;20040;-45
2023/12/22 02:54:16;;;;;;;4.68;2.20;;;;;;;24.61;35.31;98619.84;4983156;28;20018;-45
2023/12/22 02:56:42;;;;;;;4.97;2.28;;;;;;;24.57;35.14;98611.88;4983797;28;20740;-47
2023/12/22 02:59:09;;;;;;;4.27;2.23;;;;;;;24.56;35.27;98615.88;4986154;28;20023;-45
2023/12/22 03:01:34;;;;;;;4.87;2.40;;;;;;;24.56;35.20;98602.09;4985842;28;20269;-45
2023/12/22 03:04:00;;;;;;;4.78;2.22;;;;;;;24.60;35.25;98619.09;4984893;28;20300;-45
2023/12/22 03:06:25;;;;;;;4.90;2.50;;;;;;;24.58;35.31;98623.66;4984084;28;20034;-46
2023/12/22 03:08:50;;;;;;;4.45;2.22;;;;;;;24.57;35.28;98624.91;4982664;28;20363;-45
2023/12/22 03:11:16;;;;;;;4.30;2.08;;;;;;;24.56;35.31;98607.59;4983023;28;20022;-47
2023/12/22 03:13:41;;;;;;;4.50;2.20;;;;;;;24.59;35.30;98616.84;4984245;28;20030;-46
2023/12/22 03:16:09;;;;;;;4.30;2.17;;;;;;;24.59;35.26;98627.88;4981738;28;20037;-47
2023/12/22 03:18:35;;;;;;;5.03;2.13;;;;;;;24.60;35.28;98637.66;4984243;28;20034;-48
2023/12/22 03:21:00;;;;;;;4.38;2.20;;;;;;;24.60;35.11;98643.16;4986332;28;20038;-47
2023/12/22 03:23:25;;;;;;;4.93;2.10;;;;;;;24.59;35.21;98647.19;4986189;28;20079;-46
2023/12/22 03:25:51;;;;;;;4.75;2.20;;;;;;;24.57;35.12;98655.25;4979902;28;20047;-46
2023/12/22 03:28:16;;;;;;;4.70;2.00;;;;;;;24.59;35.22;98658.22;4982767;28;20397;-48
2023/12/22 03:30:42;;;;;;;4.68;2.10;;;;;;;24.60;35.14;98654.19;4982535;28;20038;-47
2023/12/22 03:33:07;;;;;;;5.00;2.13;;;;;;;24.60;35.07;98654.94;4983937;28;20051;-45
2023/12/22 03:35:32;;;;;;;4.40;2.00;;;;;;;24.63;35.14;98653.19;4984727;28;20034;-46
2023/12/22 03:37:58;;;;;;;4.65;2.00;;;;;;;24.59;35.00;98647.19;4982703;28;20026;-45
2023/12/22 03:40:23;;;;;;;4.20;1.90;;;;;;;24.60;35.03;98643.16;4984290;28;20030;-46
2023/12/22 03:42:48;;;;;;;4.57;2.10;;;;;;;24.60;35.01;98643.16;4974776;28;21077;-46
2023/12/22 03:45:14;;;;;;;4.20;1.80;;;;;;;24.59;34.98;98636.91;4982129;28;20113;-48
2023/12/22 03:47:39;;;;;;;4.43;2.10;;;;;;;24.60;35.06;98626.59;4981638;28;20022;-46
2023/12/22 03:50:06;;;;;;;4.35;1.95;;;;;;;24.60;35.04;98623.84;4983416;28;20030;-46
2023/12/22 03:52:32;;;;;;;4.40;2.00;;;;;;;24.59;35.00;98633.38;4981429;28;20077;-46
2023/12/22 03:54:57;;;;;;;4.40;1.90;;;;;;;24.58;35.15;98640.91;4983022;28;20027;-48
2023/12/22 03:57:22;;;;;;;4.10;2.00;;;;;;;24.59;35.03;98658.22;4979706;28;20031;-45
2023/12/22 03:59:48;;;;;;;3.78;1.80;;;;;;;24.58;35.13;98648.47;4980000;28;20029;-46
2023/12/22 04:02:13;;;;;;;4.43;1.80;;;;;;;24.60;35.04;98645.94;4979629;28;20433;-46
2023/12/22 04:04:39;;;;;;;4.07;1.80;;;;;;;24.58;35.07;98670.53;4988102;28;20053;-45
2023/12/22 04:07:04;;;;;;;4.43;1.90;;;;;;;24.56;35.15;98678.59;4980151;28;20022;-45
2023/12/22 04:09:29;;;;;;;4.25;1.70;;;;;;;24.56;35.10;98686.88;4982759;28;20026;-48
2023/12/22 04:11:55;;;;;;;4.40;2.10;;;;;;;24.58;35.13;98676.78;4981825;28;20033;-46
2023/12/22 04:14:20;;;;;;;4.38;1.75;;;;;;;24.59;35.16;98692.06;4984174;28;20034;-46
2023/12/22 04:16:45;;;;;;;3.80;1.70;;;;;;;24.59;34.94;98699.59;4984361;28;20381;-48
2023/12/22 04:19:11;;;;;;;3.83;1.80;;;;;;;24.61;35.10;98699.84;5013322;28;20028;-46
2023/12/22 04:21:36;;;;;;;3.90;1.67;;;;;;;24.62;34.94;98709.63;4983448;28;20470;-46
2023/12/22 04:24:01;;;;;;;3.88;1.75;;;;;;;24.62;34.99;98693.06;4980522;28;20093;-48
2023/12/22 04:26:27;;;;;;;3.78;1.70;;;;;;;24.63;34.89;98698.06;4977814;28;20015;-46
2023/12/22 04:28:52;;;;;;;3.67;1.60;;;;;;;24.63;35.19;98689.03;4981968;28;20437;-49
2023/12/22 04:31:17;;;;;;;3.72;1.67;;;;;;;24.65;34.95;98683.75;4982138;28;20029;-47
2023/12/22 04:33:43;;;;;;;3.78;1.70;;;;;;;24.62;34.88;98685.53;4983459;28;20015;-45
2023/12/22 04:36:08;;;;;;;4.10;1.80;;;;;;;24.60;34.97;98676.28;4985044;28;20030;-47
2023/12/22 04:38:33;;;;;;;4.00;1.60;;;;;;;24.59;35.08;98680.28;4996287;28;20033;-46
2023/12/22 04:40:59;;;;;;;4.15;1.55;;;;;;;24.59;35.01;98685.81;4984272;28;20027;-49
2023/12/22 04:43:24;;;;;;;4.30;1.75;;;;;;;24.57;34.93;98685.59;4981797;28;20661;-45
2023/12/22 04:45:49;;;;;;;3.35;1.63;;;;;;;24.56;35.02;98692.38;4983724;28;20026;-46
2023/12/22 04:48:15;;;;;;;3.75;1.60;;;;;;;24.56;35.04;98687.63;4980500;28;20022;-46
2023/12/22 04:50:40;;;;;;;3.85;1.70;;;;;;;24.55;35.04;98685.38;4987543;28;20040;-46
2023/12/22 04:53:06;;;;;;;3.90;1.60;;;;;;;24.57;34.96;98689.09;4977916;28;20400;-46
2023/12/22 04:55:31;;;;;;;3.90;1.60;;;;;;;24.60;34.84;98692.81;4983597;28;20034;-46
2023/12/22 04:57:56;;;;;;;4.50;1.75;;;;;;;24.54;34.89;98686.63;4982988;28;20054;-46
2023/12/22 05:00:22;;;;;;;3.38;1.50;;;;;;;24.54;35.00;98689.38;4989425;28;20029;-48
2023/12/22 05:02:47;;;;;;;4.03;1.60;;;;;;;24.55;34.99;98683.34;4983061;28;20030;-49
2023/12/22 05:05:12;;;;;;;4.35;1.70;;;;;;;24.53;34.79;98693.41;4980578;28;20026;-46
2023/12/22 05:07:38;;;;;;;3.58;1.65;;;;;;;24.54;34.90;98692.13;4983663;28;20014;-47
2023/12/22 05:10:03;;;;;;;3.80;1.55;;;;;;;24.53;34.93;98696.91;4978377;28;20380;-48
2023/12/22 05:12:29;;;;;;;3.00;1.40;;;;;;;24.50;34.86;98692.41;4981636;28;20048;-48
2023/12/22 05:14:54;;;;;;;3.30;1.40;;;;;;;24.50;34.98;98697.19;4976439;28;20038;-45
2023/12/22 05:17:20;;;;;;;4.20;1.60;;;;;;;24.48;35.00;98702.47;4980286;28;20076;-47
2023/12/22 05:19:45;;;;;;;4.00;1.60;;;;;;;24.49;34.87;98704.72;4983096;28;20094;-45
2023/12/22 05:22:11;;;;;;;4.50;1.83;;;;;;;24.50;34.93;98706.22;4980025;28;20038;-46
2023/12/22 05:24:37;;;;;;;4.45;1.42;;;;;;;24.49;34.95;98707.47;4979497;28;20083;-46
2023/12/22 05:27:02;;;;;;;5.93;1.73;;;;;;;24.46;35.18;98704.97;4981066;28;20026;-48
2023/12/22 05:29:28;;;;;;;4.07;1.63;;;;;;;24.47;35.13;98721.03;4978920;28;20030;-48
2023/12/22 05:31:53;;;;;;;4.05;1.80;;;;;;;24.47;35.01;98723.78;4982795;28;20025;-46
2023/12/22 05:34:18;;;;;;;3.83;1.60;;;;;;;24.46;35.06;98732.56;4978943;28;20034;-47
2023/12/22 05:36:44;;;;;;;9.30;1.80;;;;;;;24.47;35.13;98734.81;4985860;28;20474;-46
2023/12/22 05:39:10;;;;;;;3.85;1.60;;;;;;;24.49;35.15;98739.81;4978693;28;20030;-46
2023/12/22 05:41:37;;;;;;;5.38;1.63;;;;;;;24.50;35.09;98746.84;5011170;28;20114;-45
2023/12/22 05:44:03;;;;;;;3.88;1.50;;;;;;;24.51;35.07;98742.81;4978228;28;20653;-46
2023/12/22 05:46:30;;;;;;;4.82;1.50;;;;;;;24.49;35.02;98753.59;4981099;28;20043;-46
2023/12/22 05:48:59;;;;;;;3.22;1.40;;;;;;;24.51;35.13;98751.09;4978923;28;20040;-46
2023/12/22 05:51:24;;;;;;;3.65;1.50;;;;;;;24.50;35.17;98750.34;4980408;28;20525;-46
2023/12/22 05:53:50;;;;;;;4.05;1.40;;;;;;;24.50;35.02;98750.34;4978873;28;20076;-46
2023/12/22 05:56:21;;;;;;;4.95;1.67;;;;;;;24.49;35.26;98753.59;4979942;28;20030;-46
2023/12/22 05:58:48;;;;;;;4.25;1.42;;;;;;;24.53;35.24;98754.09;5012075;28;20106;-49
2023/12/22 06:01:18;;;;;;;7.35;1.50;;;;;;;24.53;35.18;98759.59;4979281;28;20041;-46
2023/12/22 06:03:44;;;;;;;4.55;1.70;;;;;;;24.52;35.37;98758.09;4980051;28;20073;-47
2023/12/22 06:06:09;;;;;;;4.10;1.67;;;;;;;24.50;35.32;98750.34;4977210;28;20034;-47
2023/12/22 06:08:34;;;;;;;4.22;1.50;;;;;;;24.50;35.30;98755.84;4979806;28;20022;-46
2023/12/22 06:11:00;;;;;;;4.47;1.67;;;;;;;24.50;35.42;98774.41;5007867;28;20019;-46
2023/12/22 06:13:25;;;;;;;7.07;1.70;;;;;;;24.49;35.32;98778.44;4981131;28;20030;-48
2023/12/22 06:15:50;;;;;;;4.47;1.42;;;;;;;24.47;35.18;98778.19;5007940;28;20698;-46
2023/12/22 06:18:16;;;;;;;4.85;1.60;;;;;;;24.46;35.29;98776.69;4979422;28;20034;-47
2023/12/22 06:20:41;;;;;;;3.75;1.33;;;;;;;24.46;35.13;98776.69;4982789;28;20037;-46
2023/12/22 06:23:06;;;;;;;6.03;1.60;;;;;;;24.47;35.12;98765.16;4978610;28;20030;-45
2023/12/22 06:25:32;;;;;;;8.50;1.55;;;;;;;24.47;35.12;98756.13;4978001;28;20030;-48
2023/12/22 06:27:57;;;;;;;3.78;1.50;;;;;;;24.46;35.18;98749.09;4978189;28;20027;-45
2023/12/22 06:30:22;;;;;;;3.47;1.30;;;;;;;24.46;35.28;98749.09;4980213;28;20031;-47
2023/12/22 06:32:48;;;;;;;5.03;1.50;;;;;;;24.56;35.40;98753.06;4976994;28;20488;-41
2023/12/22 06:35:13;;;;;;;4.28;1.40;;;;;;;24.53;35.44;98760.34;4982192;28;20022;-49
2023/12/22 06:37:39;;;;;;;4.63;1.50;;;;;;;24.57;35.44;98768.38;4983168;28;20489;-47
2023/12/22 06:40:05;;;;;;;5.82;1.55;;;;;;;24.57;35.22;98774.63;4985484;28;20030;-48
2023/12/22 06:42:30;;;;;;;6.38;1.35;;;;;;;24.58;35.66;98775.38;4976234;28;20026;-47
2023/12/22 06:44:55;;;;;;;4.68;1.40;;;;;;;24.57;35.46;98779.41;4980208;28;20027;-44
2023/12/22 06:47:21;;;;;;;3.65;1.40;;;;;;;24.62;35.78;98790.38;4978940;28;20045;-47
2023/12/22 06:49:46;;;;;;;4.35;1.60;;;;;;;24.62;35.57;98782.09;4974885;28;20044;-45
2023/12/22 06:52:11;;;;;;;6.60;1.75;;;;;;;24.63;35.50;98785.63;4981292;28;20034;-46
2023/12/22 06:54:37;;;;;;;4.05;1.52;;;;;;;24.61;35.46;98791.66;4981553;28;20026;-46
2023/12/22 06:57:02;;;;;;;7.05;1.88;;;;;;;24.63;35.41;98796.66;4979318;28;20390;-49
2023/12/22 06:59:28;;;;;;;5.90;1.90;;;;;;;24.60;35.48;98792.16;4982188;28;20061;-51
2023/12/22 07:01:53;;;;;;;4.80;1.55;;;;;;;24.60;35.00;98787.38;4981242;28;20022;-50
2023/12/22 07:04:18;;;;;;;4.18;1.50;;;;;;;24.59;35.35;98783.13;4978296;28;20045;-47
2023/12/22 07:06:44;;;;;;;4.80;1.70;;;;;;;24.63;35.21;98791.13;4983586;28;20125;-44
2023/12/22 07:09:09;;;;;;;4.05;1.58;;;;;;;24.65;35.39;98791.38;4975195;28;20031;-48
2023/12/22 07:11:34;;;;;;;4.88;1.65;;;;;;;24.65;34.92;98788.63;4979722;28;20022;-48
2023/12/22 07:13:59;;;;;;;5.45;1.50;;;;;;;24.63;35.53;98794.66;4982179;28;20045;-40
2023/12/22 07:16:25;;;;;;;5.03;1.60;;;;;;;24.69;34.99;98791.84;4980471;28;20042;-42
2023/12/22 07:18:50;;;;;;;4.07;1.42;;;;;;;24.71;35.12;98795.59;4980841;28;20030;-40
2023/12/22 07:21:17;;;;;;;5.40;2.00;;;;;;;24.68;35.22;98796.63;4981108;28;20026;-47
2023/12/22 07:23:44;;;;;;;5.10;1.70;;;;;;;24.67;35.37;98816.44;4975910;28;20501;-49
2023/12/22 07:26:09;;;;;;;5.40;1.50;;;;;;;24.67;35.52;98810.94;4980413;28;20402;-50
2023/12/22 07:28:34;;;;;;;4.32;1.60;;;;;;;24.66;35.04;98806.66;4982495;28;20117;-49
2023/12/22 07:31:00;;;;;;;4.95;1.52;;;;;;;24.68;35.42;98815.94;4978721;28;20072;-49
2023/12/22 07:33:25;;;;;;;4.47;1.55;;;;;;;24.72;35.28;98815.66;4984987;28;20031;-47
2023/12/22 07:35:50;;;;;;;4.68;1.60;;;;;;;24.75;35.22;98819.41;4986138;28;20088;-46
2023/12/22 07:38:16;;;;;;;4.20;1.38;;;;;;;24.76;35.14;98829.94;4984417;28;20022;-46
2023/12/22 07:40:41;;;;;;;4.28;1.42;;;;;;;24.75;35.07;98825.69;4992708;28;20091;-45
2023/12/22 07:43:07;;;;;;;4.80;1.60;;;;;;;24.78;35.22;98832.19;4983456;28;20042;-45
2023/12/22 07:45:33;;;;;;;4.25;1.55;;;;;;;24.82;35.32;98838.19;4983393;28;20030;-46
2023/12/22 07:47:58;;;;;;;5.40;1.73;;;;;;;24.83;35.01;98843.19;4985476;28;20026;-50
2023/12/22 07:50:24;;;;;;;4.72;1.50;;;;;;;24.90;35.15;98837.13;4983663;28;20034;-51
2023/12/22 07:52:50;;;;;;;5.40;1.52;;;;;;;24.87;35.39;98837.41;4988052;28;20022;-48
2023/12/22 07:55:15;;;;;;;4.38;1.50;;;;;;;24.90;35.30;98834.38;4980466;28;20030;-43
2023/12/22 07:57:40;;;;;;;5.30;1.40;;;;;;;24.87;35.15;98832.63;4981901;28;20023;-47
2023/12/22 08:00:06;;;;;;;4.40;1.70;;;;;;;24.88;35.16;98836.88;4985410;28;20026;-45
2023/12/22 08:02:32;;;;;;;4.30;1.40;;;;;;;24.89;35.05;98830.09;4987401;28;20061;-45
2023/12/22 08:04:57;;;;;;;4.38;1.50;;;;;;;24.90;34.94;98820.56;4987130;28;20052;-47
2023/12/22 08:07:23;;;;;;;4.85;1.42;;;;;;;24.90;35.01;98830.84;4989335;28;20018;-47
2023/12/22 08:09:48;;;;;;;4.88;1.70;;;;;;;24.84;34.65;98843.94;4987116;28;20026;-46
2023/12/22 08:12:13;;;;;;;3.80;1.40;;;;;;;24.81;34.78;98850.47;4988086;28;20492;-47
2023/12/22 08:14:39;;;;;;;5.45;1.60;;;;;;;24.77;34.71;98861.06;4984354;28;20488;-49
2023/12/22 08:17:04;;;;;;;4.03;1.48;;;;;;;24.79;34.90;98855.75;4983363;28;20041;-49
2023/12/22 08:19:29;;;;;;;4.70;1.70;;;;;;;24.82;34.82;98869.28;4984870;28;20027;-47
2023/12/22 08:21:55;;;;;;;4.78;1.50;;;;;;;24.81;34.79;98861.50;4981879;28;20026;-48
2023/12/22 08:24:21;;;;;;;5.63;1.55;;;;;;;24.85;34.63;98873.78;4983192;28;20029;-46
2023/12/22 08:26:46;;;;;;;6.70;1.70;;;;;;;24.87;34.45;98879.56;4988005;28;20014;-47
2023/12/22 08:29:11;;;;;;;5.35;1.90;;;;;;;24.83;34.47;98873.53;4983060;28;20030;-47
2023/12/22 08:31:37;;;;;;;4.82;1.63;;;;;;;24.83;34.52;98876.31;4986779;28;20033;-47
2023/12/22 08:34:02;;;;;;;8.60;1.70;;;;;;;24.82;34.57;98874.06;5015505;28;20496;-47
2023/12/22 08:36:27;;;;;;;5.00;1.60;;;;;;;24.84;34.85;98888.09;4989040;28;20031;-47
2023/12/22 08:38:53;;;;;;;3.95;1.45;;;;;;;24.84;34.59;98882.56;4983514;28;20024;-46
2023/12/22 08:41:18;;;;;;;5.18;1.70;;;;;;;24.86;34.68;98874.53;4983428;28;20037;-47
2023/12/22 08:43:44;;;;;;;4.47;1.65;;;;;;;24.86;34.58;98875.28;4978726;28;20033;-47
2023/12/22 08:46:12;;;;;;;4.35;1.50;;;;;;;24.87;34.67;98878.81;4982304;28;20048;-46
2023/12/22 08:48:38;;;;;;;4.32;1.58;;;;;;;24.88;34.70;98888.59;4982344;28;20093;-46
2023/12/22 08:51:04;;;;;;;4.72;1.60;;;;;;;24.83;34.80;98881.81;4983042;28;20506;-46
2023/12/22 08:53:33;;;;;;;5.20;1.60;;;;;;;24.85;34.52;98882.06;4982630;28;20034;-47
2023/12/22 08:55:59;;;;;;;6.85;1.80;;;;;;;24.83;34.55;98879.06;4979680;28;20060;-47
2023/12/22 08:58:24;;;;;;;4.18;1.60;;;;;;;24.85;34.47;98884.84;4980644;28;20552;-48
2023/12/22 09:00:50;;;;;;;4.13;1.65;;;;;;;24.87;34.32;98881.56;4982355;28;20272;-46
2023/12/22 09:03:16;;;;;;;4.43;1.60;;;;;;;24.84;34.46;98877.81;4980738;28;20054;-46
2023/12/22 09:05:42;;;;;;;6.07;1.55;;;;;;;24.82;34.48;98874.81;4980024;28;20037;-47
2023/12/22 09:08:07;;;;;;;4.88;1.60;;;;;;;24.83;34.46;98868.03;4980953;28;20073;-47
2023/12/22 09:10:32;;;;;;;4.53;1.45;;;;;;;24.85;34.63;98865.50;4982477;28;20386;-46
2023/12/22 09:12:58;;;;;;;4.50;1.48;;;;;;;24.81;34.55;98856.75;4983065;28;20034;-46
2023/12/22 09:15:23;;;;;;;3.85;1.50;;;;;;;24.82;34.52;98868.53;4978569;28;20030;-46
2023/12/22 09:17:49;;;;;;;5.10;1.55;;;;;;;24.79;34.48;98864.78;4980858;28;20118;-47
2023/12/22 09:20:15;;;;;;;8.65;1.52;;;;;;;24.79;34.42;98864.78;4982285;28;20399;-46
2023/12/22 09:22:40;;;;;;;5.63;1.60;;;;;;;24.86;34.54;98871.78;4983723;28;20033;-46
2023/12/22 09:25:05;;;;;;;5.32;1.60;;;;;;;24.84;34.56;98866.03;4980121;28;20034;-46
2023/12/22 09:27:31;;;;;;;5.18;1.92;;;;;;;24.74;34.08;98868.34;4979450;28;20034;-47
2023/12/22 09:29:56;;;;;;;7.78;1.80;;;;;;;24.66;34.36;98861.84;4978451;28;20027;-46
2023/12/22 09:32:22;;;;;;;5.30;1.90;;;;;;;24.59;34.52;98848.59;4982016;28;20127;-46
2023/12/22 09:34:47;;;;;;;7.43;2.10;;;;;;;24.55;33.65;98851.66;4982713;28;20022;-46
2023/12/22 09:37:12;;;;;;;7.57;2.00;;;;;;;24.59;34.20;98849.34;4975504;28;20030;-47
2023/12/22 09:39:38;;;;;;;6.05;2.03;;;;;;;24.53;34.15;98856.16;4985399;28;20076;-46
2023/12/22 09:42:05;;;;;;;5.95;1.85;;;;;;;24.56;34.20;98852.41;4981295;28;20481;-45
2023/12/22 09:44:32;;;;;;;6.65;2.20;;;;;;;24.65;34.14;98852.81;4977653;28;20026;-46
2023/12/22 09:46:57;;;;;;;4.85;1.80;;;;;;;24.67;34.31;98853.06;4982208;28;20019;-44
2023/12/22 09:49:23;;;;;;;5.68;1.70;;;;;;;24.65;34.42;98858.34;5007421;28;20056;-45
2023/12/22 09:51:49;;;;;;;6.60;1.75;;;;;;;24.66;34.46;98861.84;4978509;28;20010;-42
2023/12/22 09:54:14;;;;;;;6.40;1.80;;;;;;;24.70;34.28;98846.53;4979546;28;20100;-39
2023/12/22 09:56:42;;;;;;;9.52;2.20;;;;;;;24.78;34.36;98841.19;4981511;28;20621;-48
2023/12/22 09:59:11;;;;;;;;;;;;;;;24.77;34.07;98836.97;5011006;28;20054;-47
2023/12/22 10:01:36;;;;;;;;;;;;;;;24.75;34.37;98841.50;4986278;28;19968;-46
2023/12/22 10:04:01;;;;;;;7.05;2.10;;;;;;;24.87;34.51;98842.91;4983186;28;19945;-45
2023/12/22 10:06:27;;;;;;;5.45;1.85;;;;;;;24.83;34.62;98834.16;5016026;28;20037;-47
2023/12/22 10:08:52;;;;;;;6.85;2.00;;;;;;;24.85;34.77;98837.91;4996229;28;20105;-48
2023/12/22 10:11:19;;;;;;;5.93;2.30;;;;;;;24.80;34.61;98860.00;4995006;28;20506;-45
2023/12/22 10:13:44;;;;;;;7.85;2.70;;;;;;;24.88;34.67;98858.97;5008977;28;20049;-42
2023/12/22 10:16:09;;;;;;;8.88;2.97;;;;;;;24.87;34.57;98846.44;5004493;28;20474;-47
2023/12/22 10:18:35;;;;;;;6.75;2.97;;;;;;;24.84;34.86;98852.97;5008009;28;20052;-50
2023/12/22 10:21:01;;;;;;;7.32;2.80;;;;;;;24.87;34.69;98840.16;4985868;28;20037;-45
2023/12/22 10:23:26;;;;;;;6.85;2.88;;;;;;;24.87;34.80;98838.16;4978362;28;20030;-45
2023/12/22 10:25:51;;;;;;;6.95;2.85;;;;;;;24.88;34.85;98850.69;4991160;28;20033;-42
2023/12/22 10:28:17;;;;;;;8.68;2.85;;;;;;;24.89;34.72;98843.91;4981653;28;20026;-43
2023/12/22 10:30:46;;;;;;;8.45;2.83;;;;;;;24.91;34.75;98843.41;4981148;28;20438;-45
2023/12/22 10:33:12;;;;;;;6.75;2.97;;;;;;;24.91;34.67;98833.09;5011468;28;20026;-48
2023/12/22 10:35:37;;;;;;;9.20;2.60;;;;;;;24.97;34.48;98833.09;4978090;28;20037;-46
2023/12/22 10:38:03;;;;;;;6.45;2.72;;;;;;;24.97;34.74;98819.31;4983475;28;20030;-44
2023/12/22 10:40:29;;;;;;;7.63;2.85;;;;;;;24.95;34.70;98808.03;4981602;28;20414;-49
2023/12/22 10:42:54;;;;;;;7.20;2.85;;;;;;;24.95;34.58;98806.00;4979384;28;20037;-49
2023/12/22 10:45:20;;;;;;;6.30;2.47;;;;;;;24.94;34.63;98801.75;5014458;28;20101;-47
2023/12/22 10:47:45;;;;;;;6.30;2.42;;;;;;;24.93;34.67;98783.66;4985807;28;20027;-49
2023/12/22 10:50:14;;;;;;;6.38;2.60;;;;;;;24.94;34.81;98793.47;4984228;28;20038;-51
2023/12/22 10:52:39;;;;;;;5.40;2.38;;;;;;;24.93;34.73;98791.94;4991018;28;20030;-46
2023/12/22 10:55:05;;;;;;;5.85;2.63;;;;;;;24.93;34.55;98775.38;4982857;28;20500;-51
2023/12/22 10:57:37;;;;;;;6.82;2.40;;;;;;;24.93;34.92;98775.38;4981313;28;20022;-47
2023/12/22 11:00:03;;;;;;;5.47;2.42;;;;;;;24.91;34.87;98766.84;4973945;28;20038;-49
2023/12/22 11:02:29;;;;;;;5.82;2.33;;;;;;;24.86;34.90;98770.41;4984579;28;20470;-48
2023/12/22 11:05:01;;;;;;;5.47;2.58;;;;;;;24.84;34.83;98764.66;4981841;28;20087;-47
2023/12/22 11:07:26;;;;;;;6.63;2.92;;;;;;;24.86;34.90;98753.84;4987851;28;20414;-46
2023/12/22 11:09:52;;;;;;;6.93;2.78;;;;;;;24.90;34.78;98748.03;4995056;28;20029;-47
2023/12/22 11:12:18;;;;;;;8.55;4.05;;;;;;;24.92;34.63;98751.78;4999805;28;20117;-47
2023/12/22 11:14:44;;;;;;;8.20;3.80;;;;;;;24.87;34.72;98738.78;4985851;28;20026;-48
2023/12/22 11:17:09;;;;;;;8.35;4.10;;;;;;;24.84;34.78;98739.81;5018276;28;20553;-47
2023/12/22 11:19:35;;;;;;;9.45;4.03;;;;;;;24.82;34.58;98745.09;5017002;28;20046;-48
2023/12/22 11:22:00;;;;;;;7.18;3.63;;;;;;;24.81;34.36;98729.03;4985805;28;20104;-45
2023/12/22 11:24:26;;;;;;;8.70;3.65;;;;;;;24.72;34.52;98721.84;4984599;28;20052;-47
2023/12/22 11:26:51;;;;;;;7.55;3.80;;;;;;;24.70;34.30;98729.88;5015118;28;20026;-46